»·PEaware :: N4657 KMHV-KSBP

N4657 :: KMHV-KSBP

FLIGHT INFORMATION

Flight Status: Arrived
Operator: Privately registered:
United States
More flights under this callsign
Pilot: Daniel P. (20187)
Aircraft: PILATUS PC-12 EAGLE
(PC12)
More flights by this aircraft type
Origin: KMHV Mojave
United States
Destination: KSBP San Luis Co Regl
United States
More flights between these airports :: More routes between these airports
Route:
File this flight plan on PilotEdge
Remarks:
Altitude:
(Current/Filed)
7,500ft
Speed:
(Current/Filed)
200kts
Departed: 30-Aug-18 10:07 AM
Arrived: 30-Aug-18 10:46 AM
Distance/Time
Traveled:
122nm/0:38
Distance/Time
To Go:
Arrived

Flight Plot

Page will automatically refresh every two minutes.

Flight plan parsing failed; only flown route is shown


Map Options




Map Legend


Flown Route
Filed Route
Departure Airport
Arrival Airport
Navaid (VOR, NDB)
Fix

Horizontal Profiles

Position Reports

Time Latitude Longitude Heading Altitude Ground
Speed
30-Aug-18 09:57 35.057130 -118.153789 188 2755ft 0kts
30-Aug-18 09:58 35.057130 -118.153789 188 2755ft 0kts
30-Aug-18 09:59 35.057130 -118.153789 188 2755ft 0kts
30-Aug-18 10:00 35.057130 -118.153789 188 2755ft 0kts
30-Aug-18 10:01 35.057130 -118.153789 188 2755ft 0kts
30-Aug-18 10:02 35.057130 -118.153789 188 2755ft 0kts
30-Aug-18 10:03 35.057578 -118.152962 92 2754ft 12kts
30-Aug-18 10:04 35.057584 -118.148244 91 2742ft 7kts
30-Aug-18 10:05 35.057591 -118.144245 89 2734ft 11kts
30-Aug-18 10:06 35.058385 -118.142626 0 2731ft 0kts
30-Aug-18 10:07 35.058385 -118.142626 0 2731ft 0kts
30-Aug-18 10:08 35.059179 -118.150194 268 2807ft 106kts
30-Aug-18 10:09 35.058283 -118.193079 272 4820ft 167kts
30-Aug-18 10:10 35.063009 -118.254971 274 7113ft 190kts
30-Aug-18 10:11 35.068927 -118.326209 275 7561ft 229kts
30-Aug-18 10:12 35.075230 -118.402166 275 7561ft 223kts
30-Aug-18 10:13 35.081316 -118.477000 275 7561ft 222kts
30-Aug-18 10:14 35.087363 -118.551980 275 7561ft 222kts
30-Aug-18 10:15 35.093391 -118.626950 274 7561ft 222kts
30-Aug-18 10:16 35.099255 -118.700872 274 7562ft 223kts
30-Aug-18 10:17 35.105203 -118.776443 273 7558ft 224kts
30-Aug-18 10:18 35.111082 -118.852357 274 7546ft 225kts
30-Aug-18 10:19 35.116959 -118.928379 275 7531ft 225kts
30-Aug-18 10:20 35.122831 -119.004622 275 7517ft 226kts
30-Aug-18 10:21 35.127724 -119.068517 275 7509ft 226kts
30-Aug-18 10:22 35.134491 -119.157662 275 7509ft 226kts
30-Aug-18 10:23 35.140229 -119.234187 275 7509ft 226kts
30-Aug-18 10:24 35.144980 -119.298068 275 7508ft 226kts
30-Aug-18 10:26 35.151562 -119.387333 275 7508ft 226kts
30-Aug-18 10:26 35.156230 -119.451186 275 7508ft 226kts
30-Aug-18 10:28 35.162691 -119.540358 275 7508ft 226kts
30-Aug-18 10:28 35.167284 -119.604312 275 7506ft 226kts
30-Aug-18 10:29 35.172682 -119.680130 275 7507ft 226kts
30-Aug-18 10:30 35.177952 -119.756913 275 7506ft 226kts
30-Aug-18 10:31 35.184885 -119.833114 278 7520ft 226kts
30-Aug-18 10:32 35.189690 -119.909913 275 7456ft 225kts
30-Aug-18 10:33 35.194505 -119.981986 275 6942ft 210kts
30-Aug-18 10:34 35.199224 -120.052286 275 6474ft 207kts
30-Aug-18 10:35 35.203658 -120.117955 276 5958ft 174kts
30-Aug-18 10:36 35.207371 -120.174397 276 5340ft 167kts
30-Aug-18 10:37 35.211173 -120.232365 276 4761ft 173kts
30-Aug-18 10:38 35.214284 -120.289029 275 4183ft 157kts
30-Aug-18 10:39 35.216977 -120.343300 275 4005ft 153kts
30-Aug-18 10:40 35.218630 -120.394103 262 3882ft 153kts
30-Aug-18 10:41 35.203793 -120.444946 251 3436ft 156kts
30-Aug-18 10:42 35.186041 -120.491780 247 2711ft 137kts
30-Aug-18 10:43 35.182711 -120.533152 279 1790ft 148kts
30-Aug-18 10:44 35.200607 -120.578774 304 1170ft 118kts
30-Aug-18 10:45 35.217844 -120.606709 303 909ft 89kts
30-Aug-18 10:46 35.231220 -120.630282 303 302ft 83kts
30-Aug-18 10:47 35.237269 -120.639942 5 191ft 0kts
30-Aug-18 10:48 35.237584 -120.638240 17 198ft 8kts
30-Aug-18 10:49 35.237728 -120.638540 271 197ft 0kts
30-Aug-18 10:50 35.237728 -120.638540 271 197ft 0kts
30-Aug-18 10:51 35.237728 -120.638540 271 197ft 0kts

Navigation Log

Ident Type
Flight plan parsing failed, navigation log unavailable